Station info - map view · info · telemetry · weather · raw · status · beacons · messages · bulletins · browse · moving · my account
Callsign, ship name or locator: Clear       
It is possible to search using wildcards (*?) after a prefix. Example: OH*
APRS station K6GYL - show graphs
Map loading...
Mic-E message: Committed
Location: 47°06.80' N 118°21.98' W - locator DN07TC67AE - show map - static map
1.2 miles Southeast bearing 147° from Ritzville, Adams County, Washington, United States [?]
33.2 miles East bearing 72° from Warden, Grant County, Washington, United States
57.8 miles Southwest bearing 230° from Spokane, Spokane County, Washington, United States
65.3 miles Southwest bearing 234° from Spokane Valley, Spokane County, Washington, United States
Last position: 2017-11-20 17:50:37 EST (10m42s ago)
2017-11-20 14:50:37 PST local time at Ritzville, United States [?]
Altitude: 1900 ft
Course: 278°
Device: Kenwood: TM-D710 (rig)
Last path: K6GYL>4WPVXP via WAHAT,LAGRND,WIDE2*,qAR,KK7JX-10 (good)
Positions stored: 18141
Packet rate: 230 seconds between packets on average during 11525 seconds.
Stations near current position of K6GYL - show more
callsign distance last heard - EST      callsign distance last heard - EST
KE7PG-98.0 miles 269°2017-10-29 18:34:07 IRLP-707316.3 miles 245°2017-11-20 14:02:25
N7AGF-1018.4 miles 52°2017-11-12 01:57:33 AG7JM-519.8 miles 53°2017-11-14 01:49:31
EW512929.1 miles 114°2017-10-28 21:00:04
Stations which heard K6GYL directly on radio –
callsign pkts first heard - EST last heard longest (tx => rx) longest at - EST
KFALLS 19 2017-11-18 08:54:46 2017-11-18 10:44:12 CN92BR > CN92AB 46.6 miles 188° 2017-11-18 10:44:12
GRZZLY 20 2017-11-18 12:15:05 2017-11-18 13:50:39 CN95OA > CN94MK 40.1 miles 192° 2017-11-18 13:50:39
JUNIPR 15 2017-11-18 13:46:38 2017-11-18 15:21:19 CN94NX > CN95PR 52.1 miles 7° 2017-11-18 13:46:38
N7OKG-1 6 2017-11-18 19:15:57 2017-11-20 16:23:57 DN17LQ > DN18GC 32.7 miles 323° 2017-11-20 15:37:44
SHASTA 1 2017-11-18 08:18:39 2017-11-18 08:18:39 CN81PP > CN81VF 39.7 miles 139° 2017-11-18 08:18:39
STUKEL 24 2017-11-18 09:23:57 2017-11-18 10:25:03 CN81XR > CN92EC 32.9 miles 42° 2017-11-18 09:23:57
K7TYE 16 2017-11-18 12:33:38 2017-11-18 13:47:38 CN94NX > CN94IK 43.1 miles 211° 2017-11-18 13:47:38
WA7RVV-8 20 2017-11-18 19:14:58 2017-11-20 16:24:58 DN17KP > DN18RC 40.3 miles 43° 2017-11-18 19:14:58
MISION 4 2017-11-18 16:27:24 2017-11-18 16:59:17 DN06KE > CN97TG 94.9 miles 322° 2017-11-18 16:59:17
UNVMTN 34 2017-11-18 21:52:17 2017-11-20 12:58:06 DN26WH > DN36AU 38.6 miles 14° 2017-11-18 23:15:29
PATKNB 42 2017-11-18 20:41:28 2017-11-20 14:14:24 DN26XR > DN27NI 57.6 miles 321° 2017-11-20 11:52:02
WA2WA 3 2017-11-18 16:56:17 2017-11-20 17:19:14 DN07XH > DN06XB 84.0 miles 179° 2017-11-20 17:19:14
LOOKOT 12 2017-11-18 20:01:16 2017-11-20 14:55:52 DN17RO > DN27EK 41.0 miles 104° 2017-11-18 20:01:16
YREKA 14 2017-11-18 08:04:35 2017-11-18 09:37:01 CN91AW > CN81PR 44.2 miles 252° 2017-11-18 09:37:01
ALAKES 5 2017-11-18 15:47:29 2017-11-18 17:16:12 DN06LF > DN04VX 97.7 miles 156° 2017-11-18 17:16:12
WAHAT 20 2017-11-18 16:18:06 2017-11-20 17:50:37 DN07UE > DN06FT 66.2 miles 247° 2017-11-20 17:40:33
HOGBAK 13 2017-11-18 09:44:48 2017-11-18 10:25:03 CN92BA > CN92DF 18.6 miles 30° 2017-11-18 09:44:48
WA7DRE 36 2017-11-18 18:40:48 2017-11-20 17:05:10 DN17LQ > DN17EN 27.3 miles 250° 2017-11-20 16:12:39
NB7O-1 6 2017-11-18 15:52:29 2017-11-18 16:05:45 DN05IX > DN05HU 10.5 miles 189° 2017-11-18 16:05:45
KC7DMF-10 5 2017-11-18 12:34:39 2017-11-18 12:40:40 CN94JF > CN94JE 5.6 miles 208° 2017-11-18 12:40:40
WA7DRE-11 4 2017-11-18 18:46:50 2017-11-20 16:35:03 DN17DL > DN17KN 31.4 miles 77° 2017-11-18 18:46:50
KE7QP 2 2017-11-18 09:12:55 2017-11-18 09:16:56 CN81VP > CN92WH 114.3 miles 66° 2017-11-18 09:12:55

Only position packets which were originated by the station are shown here. The range statistics show some extra long hops, because some digipeaters do not correctly add themselves to the digipeater path. Please check the raw packets.
About this site
This page shows real-time information collected from the Automatic Position Reporting System Internet network (APRS-IS). APRS is used by amateur (ham) radio operators to transmit real-time position information, weather data, telemetry and messages over the radio. A vehicle equipped with a GPS receiver, a VHF transmitter or HF transceiver and a small computer device called a tracker transmits it's location, speed and course in a small data packet, which is then received by a nearby iGate receiving site which forwards the packet on the Internet. Systems connected to the Internet can send information on the APRS-IS without a radio transmitter, or collect and display information transmitted anywhere in the world.
FAQ · Blog · Discussion group · Linking to aprs.fi · AIS sites · Service status · Database statistics · Advertising on aprs.fi · Technical details · API · Change log · Planned changes · Credits and thanks · Terms Of Service · iPhone/iPad APRS